createdAt,value
2017-11-03T00:00:05.976Z,91.16
2017-11-03T00:02:34.278Z,91.05
2017-11-03T00:05:02.569Z,90.67
2017-11-03T00:07:30.870Z,90.85
2017-11-03T00:09:59.180Z,90.53
2017-11-03T00:12:27.517Z,90.44
2017-11-03T00:14:55.824Z,90.19
2017-11-03T00:17:24.121Z,90.73
2017-11-03T00:19:52.445Z,90.28
2017-11-03T00:22:20.744Z,89.87
2017-11-03T00:24:49.042Z,89.76
2017-11-03T00:27:17.342Z,90.38
2017-11-03T00:29:45.649Z,90.12
2017-11-03T00:32:13.962Z,89.69
2017-11-03T00:34:42.260Z,89.68
2017-11-03T00:37:10.568Z,90.16
2017-11-03T00:39:38.865Z,90.06
2017-11-03T00:42:07.146Z,89.95
2017-11-03T00:44:35.431Z,90.38
2017-11-03T00:47:03.741Z,91.26
2017-11-03T00:49:32.799Z,91.32
2017-11-03T00:52:01.075Z,90.74
2017-11-03T00:54:29.351Z,89.92
2017-11-03T00:56:57.644Z,89.35
2017-11-03T00:59:25.931Z,89.38
2017-11-03T01:01:54.997Z,88.81
2017-11-03T01:04:23.294Z,88.70
2017-11-03T01:06:51.581Z,88.61
2017-11-03T01:09:19.897Z,89.38
2017-11-03T01:11:48.194Z,89.54
2017-11-03T01:14:16.978Z,88.90
2017-11-03T01:16:45.288Z,88.53
2017-11-03T01:19:13.584Z,88.13
2017-11-03T01:21:41.878Z,87.94
2017-11-03T01:24:10.173Z,87.73
2017-11-03T01:26:38.466Z,87.97
2017-11-03T01:29:06.748Z,89.24
2017-11-03T01:31:35.055Z,91.17
2017-11-03T01:34:03.367Z,91.67
2017-11-03T01:36:31.648Z,91.78
2017-11-03T01:38:59.936Z,90.41
2017-11-03T01:41:28.217Z,89.70
2017-11-03T01:43:56.513Z,88.71
2017-11-03T01:46:24.813Z,88.08
2017-11-03T01:48:53.869Z,87.32
2017-11-03T01:51:22.157Z,87.01
2017-11-03T01:53:50.438Z,87.89
2017-11-03T01:56:18.720Z,89.36
2017-11-03T01:58:47.191Z,93.77
2017-11-03T02:01:15.462Z,92.82
2017-11-03T02:03:43.729Z,92.17
2017-11-03T02:06:12.011Z,91.58
2017-11-03T02:08:40.278Z,91.46
2017-11-03T02:11:08.567Z,91.86
2017-11-03T02:13:36.862Z,93.60
2017-11-03T02:16:05.154Z,94.48
2017-11-03T02:18:33.485Z,94.51
2017-11-03T02:21:01.765Z,93.80
2017-11-03T02:23:30.111Z,93.22
2017-11-03T02:25:58.393Z,93.32
2017-11-03T02:28:26.685Z,92.39
2017-11-03T02:30:54.964Z,92.35
2017-11-03T02:33:23.239Z,92.14
2017-11-03T02:35:51.549Z,93.09
2017-11-03T02:38:19.837Z,92.95
2017-11-03T02:40:48.888Z,92.47
2017-11-03T02:43:17.176Z,91.36
2017-11-03T02:45:45.469Z,91.66
2017-11-03T02:48:13.748Z,91.25
2017-11-03T02:50:42.032Z,90.98
2017-11-03T02:53:11.088Z,91.14
2017-11-03T02:55:39.368Z,90.82
2017-11-03T02:58:07.651Z,90.88
2017-11-03T03:00:35.970Z,91.08
2017-11-03T03:03:05.003Z,90.95
2017-11-03T03:05:33.293Z,90.32
2017-11-03T03:08:01.578Z,90.38
2017-11-03T03:10:29.864Z,89.98
2017-11-03T03:12:58.149Z,89.91
2017-11-03T03:15:26.436Z,89.93
2017-11-03T03:17:55.484Z,90.08
2017-11-03T03:20:24.350Z,90.94
2017-11-03T03:22:52.643Z,90.17
2017-11-03T03:25:20.932Z,90.37
2017-11-03T03:27:49.204Z,90.28
2017-11-03T03:30:17.485Z,90.04
2017-11-03T03:32:45.756Z,90.27
2017-11-03T03:35:14.023Z,90.70
2017-11-03T03:37:43.749Z,90.73
2017-11-03T03:40:12.032Z,91.31
2017-11-03T03:42:40.303Z,92.48
2017-11-03T03:45:08.588Z,92.73
2017-11-03T03:47:36.893Z,92.90
2017-11-03T03:50:05.989Z,93.40
2017-11-03T03:52:34.277Z,93.97
2017-11-03T03:55:03.323Z,93.34
2017-11-03T03:57:31.604Z,92.91
2017-11-03T03:59:59.896Z,92.67
2017-11-03T04:02:29.211Z,92.81
2017-11-03T04:04:57.512Z,93.62
2017-11-03T04:07:25.805Z,92.92
2017-11-03T04:09:54.076Z,93.23
2017-11-03T04:12:22.370Z,93.48
2017-11-03T04:14:50.664Z,93.22
2017-11-03T04:17:18.947Z,93.14
2017-11-03T04:19:47.228Z,92.87
2017-11-03T04:22:15.524Z,92.65
2017-11-03T04:24:43.809Z,92.66
2017-11-03T04:27:12.889Z,92.74
2017-11-03T04:29:41.172Z,92.30
2017-11-03T04:32:10.221Z,91.98
2017-11-03T04:34:38.503Z,92.87
2017-11-03T04:37:06.779Z,93.25
2017-11-03T04:39:35.051Z,92.73
2017-11-03T04:42:03.955Z,92.93
2017-11-03T04:44:32.226Z,92.89
2017-11-03T04:47:00.537Z,93.17
2017-11-03T04:49:28.817Z,92.57
2017-11-03T04:51:57.876Z,93.12
2017-11-03T04:54:26.192Z,93.45
2017-11-03T04:56:55.253Z,93.04
2017-11-03T04:59:23.576Z,93.10
2017-11-03T05:01:51.869Z,92.92
2017-11-03T05:04:20.143Z,92.67
2017-11-03T05:06:48.425Z,92.80
2017-11-03T05:09:16.694Z,92.29
2017-11-03T05:11:44.982Z,92.99
2017-11-03T05:14:13.266Z,93.33
2017-11-03T05:16:42.135Z,93.18
2017-11-03T05:19:11.167Z,92.38
2017-11-03T05:21:39.477Z,92.27
2017-11-03T05:24:07.763Z,92.01
2017-11-03T05:26:36.050Z,91.86
2017-11-03T05:29:04.353Z,91.76
2017-11-03T05:31:32.621Z,91.67
2017-11-03T05:34:00.905Z,91.42
2017-11-03T05:36:29.274Z,91.56
2017-11-03T05:38:57.560Z,91.48
2017-11-03T05:41:25.846Z,91.42
2017-11-03T05:43:54.139Z,92.74
2017-11-03T05:46:22.433Z,93.15
2017-11-03T05:48:51.488Z,94.78
2017-11-03T05:51:19.777Z,95.02
2017-11-03T05:53:48.054Z,94.12
2017-11-03T05:56:16.349Z,94.01
2017-11-03T05:58:44.644Z,94.53
2017-11-03T06:01:13.704Z,94.07
2017-11-03T06:03:41.980Z,93.80
2017-11-03T06:06:10.310Z,93.90
2017-11-03T06:08:38.591Z,93.64
2017-11-03T06:11:06.880Z,94.03
2017-11-03T06:13:35.155Z,94.41
2017-11-03T06:16:03.440Z,94.26
2017-11-03T06:18:31.724Z,93.57
2017-11-03T06:21:00.029Z,93.92
2017-11-03T06:23:28.318Z,96.40
2017-11-03T06:25:56.615Z,97.70
2017-11-03T06:28:24.898Z,96.83
2017-11-03T06:30:53.179Z,95.42
2017-11-03T06:33:21.470Z,94.78
2017-11-03T06:35:49.749Z,94.43
2017-11-03T06:38:18.040Z,94.23
2017-11-03T06:40:46.320Z,93.66
2017-11-03T06:43:14.604Z,93.46
2017-11-03T06:45:42.913Z,94.19
2017-11-03T06:48:11.960Z,93.59
2017-11-03T06:50:40.245Z,93.13
2017-11-03T06:53:08.523Z,92.89
2017-11-03T06:55:36.808Z,92.64
2017-11-03T06:58:05.088Z,92.01
2017-11-03T07:00:33.372Z,92.37
2017-11-03T07:03:01.656Z,92.52
2017-11-03T07:05:29.935Z,92.53
2017-11-03T07:07:58.990Z,92.03
2017-11-03T07:10:27.288Z,92.05
2017-11-03T07:12:55.579Z,91.78
2017-11-03T07:15:24.633Z,91.39
2017-11-03T07:17:54.181Z,91.52
2017-11-03T07:20:22.468Z,91.90
2017-11-03T07:22:50.786Z,91.35
2017-11-03T07:25:19.072Z,91.41
2017-11-03T07:27:47.368Z,91.24
2017-11-03T07:30:15.663Z,92.04
2017-11-03T07:32:43.953Z,91.84
2017-11-03T07:35:13.006Z,91.56
2017-11-03T07:37:41.300Z,91.76
2017-11-03T07:40:09.594Z,91.54
2017-11-03T07:42:38.644Z,91.53
2017-11-03T07:45:06.969Z,91.29
2017-11-03T07:47:35.266Z,92.00
2017-11-03T07:50:03.552Z,92.93
2017-11-03T07:52:31.849Z,92.20
2017-11-03T07:55:00.161Z,92.20
2017-11-03T07:57:28.440Z,91.68
2017-11-03T07:59:57.289Z,91.25
2017-11-03T08:02:25.590Z,90.99
2017-11-03T08:04:53.901Z,90.58
2017-11-03T08:07:22.174Z,90.46
2017-11-03T08:09:50.475Z,90.45
2017-11-03T08:12:18.829Z,90.20
2017-11-03T08:14:47.118Z,89.76
2017-11-03T08:17:15.417Z,89.53
2017-11-03T08:19:43.712Z,89.12
2017-11-03T08:22:12.725Z,88.83
2017-11-03T08:24:41.017Z,88.79
2017-11-03T08:27:10.076Z,88.01
2017-11-03T08:29:38.365Z,87.60
2017-11-03T08:32:06.672Z,88.44
2017-11-03T08:34:34.984Z,88.46
2017-11-03T08:37:03.304Z,88.13
2017-11-03T08:39:31.602Z,87.99
2017-11-03T08:42:00.656Z,87.63
2017-11-03T08:44:28.946Z,86.88
2017-11-03T08:46:57.248Z,87.74
2017-11-03T08:49:25.541Z,87.46
2017-11-03T08:51:54.950Z,86.96
2017-11-03T08:54:23.247Z,87.75
2017-11-03T08:56:51.540Z,88.00
2017-11-03T08:59:19.836Z,87.61
2017-11-03T09:01:48.142Z,87.16
2017-11-03T09:04:16.450Z,86.83
2017-11-03T09:06:46.119Z,86.86
2017-11-03T09:09:14.404Z,86.88
2017-11-03T09:11:42.706Z,86.56
2017-11-03T09:14:11.007Z,86.23
2017-11-03T09:16:39.296Z,86.10
2017-11-03T09:19:07.595Z,85.94
2017-11-03T09:21:36.673Z,85.79
2017-11-03T09:24:04.967Z,86.37
2017-11-03T09:26:34.032Z,86.10
2017-11-03T09:29:02.327Z,86.25
2017-11-03T09:31:30.643Z,85.44
2017-11-03T09:33:58.940Z,85.35
2017-11-03T09:36:27.237Z,85.36
2017-11-03T09:38:55.537Z,85.63
2017-11-03T09:41:23.836Z,85.24
2017-11-03T09:43:52.137Z,84.98
2017-11-03T09:46:20.435Z,85.11
2017-11-03T09:48:48.732Z,84.40
2017-11-03T09:51:17.029Z,83.64
2017-11-03T09:53:45.311Z,83.62
2017-11-03T09:56:13.621Z,83.77
2017-11-03T09:58:42.995Z,84.16
2017-11-03T10:01:11.293Z,85.12
2017-11-03T10:03:39.589Z,85.91
2017-11-03T10:06:07.881Z,85.53
2017-11-03T10:08:36.198Z,85.27
2017-11-03T10:11:04.496Z,84.44
2017-11-03T10:13:32.784Z,85.07
2017-11-03T10:16:01.846Z,84.56
2017-11-03T10:18:30.912Z,85.73
2017-11-03T10:20:59.210Z,87.54
2017-11-03T10:23:27.508Z,85.76
2017-11-03T10:25:55.804Z,85.57
2017-11-03T10:28:24.116Z,85.11
2017-11-03T10:30:52.416Z,85.77
2017-11-03T10:33:21.488Z,86.79
2017-11-03T10:35:49.785Z,86.74
2017-11-03T10:38:18.845Z,87.01
2017-11-03T10:40:47.152Z,87.16
2017-11-03T10:43:16.213Z,87.14
2017-11-03T10:45:44.516Z,87.43
2017-11-03T10:48:12.816Z,87.31
2017-11-03T10:50:41.116Z,86.44
2017-11-03T10:53:09.405Z,86.58
2017-11-03T10:55:37.721Z,86.75
2017-11-03T10:58:06.014Z,86.10
2017-11-03T11:00:34.312Z,86.22
2017-11-03T11:03:02.601Z,86.03
2017-11-03T11:05:30.901Z,86.08
2017-11-03T11:07:59.199Z,86.68
2017-11-03T11:10:27.499Z,86.32
2017-11-03T11:12:55.784Z,86.59
2017-11-03T11:15:24.844Z,86.54
2017-11-03T11:17:53.143Z,87.07
2017-11-03T11:20:22.200Z,86.74
2017-11-03T11:22:50.493Z,87.02
2017-11-03T11:25:18.797Z,86.87
2017-11-03T11:27:47.100Z,86.66
2017-11-03T11:30:15.388Z,86.26
2017-11-03T11:32:44.500Z,85.27
2017-11-03T11:35:12.801Z,84.54
2017-11-03T11:37:41.122Z,84.06
2017-11-03T11:40:09.428Z,83.17
2017-11-03T11:42:37.729Z,83.38
2017-11-03T11:45:06.020Z,82.83
2017-11-03T11:47:34.328Z,82.83
2017-11-03T11:50:03.862Z,81.22
2017-11-03T11:52:32.180Z,82.30
2017-11-03T11:55:00.480Z,81.78
2017-11-03T11:57:28.773Z,81.38
2017-11-03T11:59:57.069Z,81.63
2017-11-03T12:02:25.365Z,81.08
2017-11-03T12:04:53.681Z,82.24
2017-11-03T12:07:21.971Z,82.49
2017-11-03T12:09:50.255Z,82.22
2017-11-03T12:12:18.542Z,82.69
2017-11-03T12:14:46.826Z,82.96
2017-11-03T12:17:16.172Z,83.17
2017-11-03T12:19:44.478Z,83.68
2017-11-03T12:22:12.768Z,85.22
2017-11-03T12:24:41.061Z,86.53
2017-11-03T12:27:09.349Z,86.17
2017-11-03T12:29:37.640Z,85.94
2017-11-03T12:32:05.967Z,85.93
2017-11-03T12:34:34.260Z,86.03
2017-11-03T12:37:02.556Z,86.41
2017-11-03T12:39:30.835Z,86.51
2017-11-03T12:41:59.124Z,87.34
2017-11-03T12:44:27.436Z,87.07
2017-11-03T12:46:55.732Z,87.31
2017-11-03T12:49:24.017Z,87.15
2017-11-03T12:51:52.309Z,85.96
2017-11-03T12:54:20.593Z,86.40
2017-11-03T12:56:48.897Z,86.27
2017-11-03T12:59:17.948Z,85.48
2017-11-03T13:01:46.227Z,84.98
2017-11-03T13:04:14.511Z,84.12
2017-11-03T13:06:43.391Z,83.74
2017-11-03T13:09:11.680Z,83.17
2017-11-03T13:11:39.977Z,83.23
2017-11-03T13:14:09.041Z,84.07
2017-11-03T13:16:37.334Z,82.98
2017-11-03T13:19:05.633Z,82.53
2017-11-03T13:21:33.928Z,81.39
2017-11-03T13:24:02.222Z,80.42
2017-11-03T13:26:30.513Z,80.64
2017-11-03T13:28:58.812Z,79.20
2017-11-03T13:31:27.113Z,79.63
2017-11-03T13:33:56.185Z,78.66
2017-11-03T13:36:24.477Z,79.04
2017-11-03T13:38:52.777Z,79.62
2017-11-03T13:41:21.080Z,79.97
2017-11-03T13:43:49.380Z,78.89
2017-11-03T13:46:17.689Z,78.60
2017-11-03T13:48:45.981Z,78.62
2017-11-03T13:51:14.296Z,78.86
2017-11-03T13:53:42.612Z,78.82
2017-11-03T13:56:10.900Z,78.82
2017-11-03T13:58:39.952Z,77.20
2017-11-03T14:01:08.235Z,76.46
2017-11-03T14:03:36.538Z,76.95
2017-11-03T14:06:04.843Z,75.81
2017-11-03T14:08:33.134Z,76.70
2017-11-03T14:11:01.436Z,75.94
2017-11-03T14:13:29.729Z,75.58
2017-11-03T14:15:58.021Z,73.34
2017-11-03T14:18:26.321Z,71.23
2017-11-03T14:20:55.384Z,67.48
2017-11-03T14:23:23.681Z,63.96
2017-11-03T14:25:52.744Z,58.76
2017-11-03T14:28:21.048Z,56.67
2017-11-03T14:30:50.628Z,55.02
2017-11-03T14:33:18.917Z,54.02
2017-11-03T14:35:47.218Z,54.31
2017-11-03T14:38:15.516Z,54.09
2017-11-03T14:40:43.809Z,53.48
2017-11-03T14:43:12.098Z,52.87
2017-11-03T14:45:40.387Z,53.19
2017-11-03T14:48:08.933Z,53.89
2017-11-03T14:50:37.216Z,53.78
2017-11-03T14:53:05.503Z,55.58
2017-11-03T14:55:33.798Z,56.80
2017-11-03T14:58:02.089Z,58.79
2017-11-03T15:00:30.388Z,60.05
2017-11-03T15:02:58.677Z,61.05
2017-11-03T15:05:26.968Z,60.81
2017-11-03T15:07:55.264Z,60.59
2017-11-03T15:10:23.561Z,60.97
2017-11-03T15:12:51.861Z,61.53
2017-11-03T15:15:20.917Z,62.35
2017-11-03T15:17:49.210Z,63.15
2017-11-03T15:20:17.506Z,63.82
2017-11-03T15:22:45.797Z,64.90
2017-11-03T15:25:14.097Z,66.59
2017-11-03T15:27:42.377Z,67.64
2017-11-03T15:30:10.689Z,71.15
2017-11-03T15:32:38.989Z,72.11
2017-11-03T15:35:07.289Z,72.33
2017-11-03T15:37:35.580Z,72.49
2017-11-03T15:40:03.860Z,73.27
2017-11-03T15:42:32.149Z,73.79
2017-11-03T15:45:00.432Z,74.67
2017-11-03T15:47:28.725Z,76.19
2017-11-03T15:49:57.002Z,77.71
2017-11-03T15:52:25.286Z,78.14
2017-11-03T15:54:53.581Z,78.58
2017-11-03T15:57:21.871Z,79.03
2017-11-03T15:59:50.153Z,81.92
2017-11-03T16:02:18.457Z,82.34
2017-11-03T16:04:46.754Z,82.69
2017-11-03T16:07:15.041Z,81.86
2017-11-03T16:09:43.333Z,81.46
2017-11-03T16:12:12.706Z,81.68
2017-11-03T16:14:40.992Z,81.88
2017-11-03T16:17:10.050Z,83.97
2017-11-03T16:19:38.355Z,84.19
2017-11-03T16:22:06.662Z,84.64
2017-11-03T16:24:34.961Z,83.79
2017-11-03T16:27:03.260Z,83.38
2017-11-03T16:29:31.548Z,83.06
2017-11-03T16:31:59.824Z,83.86
2017-11-03T16:34:28.245Z,83.39
2017-11-03T16:36:56.543Z,83.24
2017-11-03T16:39:24.823Z,82.91
2017-11-03T16:41:53.095Z,82.84
2017-11-03T16:44:21.379Z,84.18
2017-11-03T16:46:49.665Z,83.97
2017-11-03T16:49:17.952Z,83.59
2017-11-03T16:51:46.246Z,83.25
2017-11-03T16:54:14.524Z,84.13
2017-11-03T16:56:43.131Z,84.73
2017-11-03T16:59:11.416Z,85.23
2017-11-03T17:01:39.747Z,85.84
2017-11-03T17:04:08.040Z,84.97
2017-11-03T17:06:36.315Z,85.75
2017-11-03T17:09:04.640Z,86.00
2017-11-03T17:11:32.949Z,87.51
2017-11-03T17:14:01.252Z,89.04
2017-11-03T17:16:29.549Z,90.54
2017-11-03T17:18:58.624Z,90.11
2017-11-03T17:21:26.900Z,88.60
2017-11-03T17:23:56.760Z,87.67
2017-11-03T17:26:25.040Z,87.46
2017-11-03T17:28:53.562Z,87.01
2017-11-03T17:31:21.841Z,87.31
2017-11-03T17:33:50.128Z,86.46
2017-11-03T17:36:18.385Z,85.90
2017-11-03T17:38:46.649Z,85.41
2017-11-03T17:41:15.785Z,85.65
2017-11-03T17:43:44.048Z,86.10
2017-11-03T17:46:13.450Z,87.57
2017-11-03T17:48:41.717Z,88.14
2017-11-03T17:51:09.982Z,88.16
2017-11-03T17:53:38.579Z,88.55
2017-11-03T17:56:06.932Z,89.04
2017-11-03T17:58:35.476Z,90.00
2017-11-03T18:01:04.669Z,90.29
2017-11-03T18:03:33.182Z,88.62
2017-11-03T18:06:01.768Z,88.11
2017-11-03T18:08:30.256Z,87.25
2017-11-03T18:10:58.858Z,86.84
2017-11-03T18:13:27.347Z,86.31
2017-11-03T18:15:55.861Z,86.62
2017-11-03T18:18:24.471Z,88.23
2017-11-03T18:20:52.855Z,87.44
2017-11-03T18:23:21.654Z,87.45
2017-11-03T18:25:50.239Z,86.98
2017-11-03T18:28:18.696Z,87.32
2017-11-03T18:30:47.594Z,87.67
2017-11-03T18:33:16.089Z,88.33
2017-11-03T18:35:45.244Z,88.10
2017-11-03T18:38:14.221Z,87.74
2017-11-03T18:40:42.556Z,88.05
2017-11-03T18:43:10.860Z,87.89
2017-11-03T18:45:39.170Z,87.56
2017-11-03T18:48:08.277Z,87.91
2017-11-03T18:50:36.814Z,88.25
2017-11-03T18:53:06.270Z,88.18
2017-11-03T18:55:35.191Z,88.78
2017-11-03T18:58:04.540Z,88.32
2017-11-03T19:00:33.891Z,87.98
2017-11-03T19:03:03.159Z,87.85
2017-11-03T19:05:32.726Z,87.09
2017-11-03T19:08:02.447Z,86.96
2017-11-03T19:10:32.182Z,86.71
2017-11-03T19:13:02.037Z,86.52
2017-11-03T19:15:31.956Z,86.93
2017-11-03T19:18:01.594Z,86.94
2017-11-03T19:20:31.135Z,88.32
2017-11-03T19:23:00.583Z,89.27
2017-11-03T19:25:30.306Z,88.52
2017-11-03T19:27:59.924Z,89.10
2017-11-03T19:30:29.751Z,88.77
2017-11-03T19:32:59.565Z,89.14
2017-11-03T19:35:29.405Z,89.89
2017-11-03T19:38:00.096Z,89.13
2017-11-03T19:40:29.768Z,90.18
2017-11-03T19:42:59.554Z,91.15
2017-11-03T19:45:29.388Z,92.23
2017-11-03T19:47:59.137Z,91.67
2017-11-03T19:50:28.944Z,91.75
2017-11-03T19:52:58.700Z,92.63
2017-11-03T19:55:29.398Z,93.17
2017-11-03T19:57:59.300Z,93.93
2017-11-03T20:00:29.214Z,93.91
2017-11-03T20:02:59.018Z,93.34
2017-11-03T20:05:28.848Z,93.66
2017-11-03T20:07:58.778Z,93.86
2017-11-03T20:10:28.652Z,94.33
2017-11-03T20:12:59.335Z,94.08
2017-11-03T20:15:29.135Z,94.32
2017-11-03T20:17:59.035Z,95.00
2017-11-03T20:20:28.900Z,94.41
2017-11-03T20:22:58.662Z,94.70
2017-11-03T20:25:28.584Z,93.87
2017-11-03T20:27:58.388Z,93.58
2017-11-03T20:30:28.171Z,93.62
2017-11-03T20:32:57.970Z,94.10
2017-11-03T20:35:28.389Z,93.55
2017-11-03T20:37:58.190Z,92.92
2017-11-03T20:40:27.997Z,92.69
2017-11-03T20:42:57.831Z,92.14
2017-11-03T20:45:27.682Z,91.28
2017-11-03T20:47:57.428Z,91.49
2017-11-03T20:50:27.244Z,91.40
2017-11-03T20:52:57.075Z,91.51
2017-11-03T20:55:26.894Z,91.94
2017-11-03T20:57:56.642Z,92.53
2017-11-03T21:00:26.396Z,92.64
2017-11-03T21:02:56.292Z,92.91
2017-11-03T21:05:26.030Z,93.23
2017-11-03T21:07:55.777Z,93.59
2017-11-03T21:10:25.584Z,93.92
2017-11-03T21:12:55.395Z,94.81
2017-11-03T21:15:26.329Z,94.00
2017-11-03T21:17:56.344Z,94.12
2017-11-03T21:20:26.115Z,94.49
2017-11-03T21:22:55.868Z,94.52
2017-11-03T21:25:25.622Z,95.14
2017-11-03T21:27:55.352Z,95.28
2017-11-03T21:30:25.041Z,95.44
2017-11-03T21:32:54.653Z,95.25
2017-11-03T21:35:24.407Z,95.56
2017-11-03T21:37:54.183Z,95.81
2017-11-03T21:40:23.888Z,94.96
2017-11-03T21:42:54.277Z,94.67
2017-11-03T21:45:24.932Z,95.12
2017-11-03T21:47:53.906Z,95.03
2017-11-03T21:50:22.453Z,94.92
2017-11-03T21:52:51.017Z,94.74
2017-11-03T21:55:19.664Z,95.13
2017-11-03T21:57:48.097Z,97.21
2017-11-03T22:00:16.813Z,97.58
2017-11-03T22:02:45.977Z,96.98
2017-11-03T22:05:14.374Z,96.29
2017-11-03T22:07:42.698Z,95.74
2017-11-03T22:10:11.007Z,95.58
2017-11-03T22:12:39.289Z,95.32
2017-11-03T22:15:07.569Z,95.41
2017-11-03T22:17:35.856Z,94.65
2017-11-03T22:20:04.131Z,95.35
2017-11-03T22:22:32.437Z,95.34
2017-11-03T22:25:00.722Z,95.43
2017-11-03T22:27:29.063Z,96.19
2017-11-03T22:29:57.331Z,96.26
2017-11-03T22:32:25.612Z,95.84
2017-11-03T22:34:53.908Z,95.35
2017-11-03T22:37:22.188Z,95.06
2017-11-03T22:39:50.476Z,95.50
2017-11-03T22:42:18.777Z,95.50
2017-11-03T22:44:47.056Z,95.07
2017-11-03T22:47:15.337Z,94.12
2017-11-03T22:49:43.618Z,95.15
2017-11-03T22:52:11.901Z,95.12
2017-11-03T22:54:40.185Z,96.33
2017-11-03T22:57:08.468Z,96.64
2017-11-03T22:59:36.760Z,96.31
2017-11-03T23:02:05.041Z,97.25
2017-11-03T23:04:33.345Z,98.11
2017-11-03T23:07:01.629Z,97.85
2017-11-03T23:09:30.687Z,96.77
2017-11-03T23:11:58.978Z,96.28
2017-11-03T23:14:27.246Z,96.51
2017-11-03T23:16:55.516Z,96.66
2017-11-03T23:19:23.792Z,96.41
2017-11-03T23:21:56.709Z,96.68
2017-11-03T23:24:25.760Z,97.00
2017-11-03T23:26:54.048Z,96.92
2017-11-03T23:29:22.336Z,96.24
2017-11-03T23:31:50.629Z,96.02
2017-11-03T23:34:18.925Z,96.60
2017-11-03T23:36:48.402Z,97.04
2017-11-03T23:39:18.376Z,96.07
2017-11-03T23:41:46.657Z,95.66
2017-11-03T23:44:14.964Z,95.39
2017-11-03T23:46:44.274Z,95.38
2017-11-03T23:49:12.557Z,94.93
2017-11-03T23:51:41.613Z,94.92
2017-11-03T23:54:09.900Z,94.57
2017-11-03T23:56:38.192Z,94.67
2017-11-03T23:59:06.472Z,94.36
